createdAt,value
2023-04-11T00:00:56.324Z,70.60
2023-04-11T00:03:23.489Z,70.70
2023-04-11T00:05:50.437Z,70.80
2023-04-11T00:08:17.357Z,71.00
2023-04-11T00:10:45.598Z,71.10
2023-04-11T00:13:12.920Z,71.20
2023-04-11T00:15:39.896Z,71.60
2023-04-11T00:18:07.324Z,71.80
2023-04-11T00:20:34.386Z,71.90
2023-04-11T00:23:01.248Z,71.90
2023-04-11T00:25:29.952Z,72.20
2023-04-11T00:27:57.038Z,72.20
2023-04-11T00:30:23.965Z,72.20
2023-04-11T00:32:50.934Z,72.30
2023-04-11T00:35:17.949Z,72.50
2023-04-11T00:37:45.510Z,72.60
2023-04-11T00:40:14.216Z,72.70
2023-04-11T00:42:42.131Z,72.70
2023-04-11T00:45:09.495Z,73.00
2023-04-11T00:47:36.927Z,73.10
2023-04-11T00:50:04.140Z,73.10
2023-04-11T00:52:31.354Z,73.10
2023-04-11T00:54:58.390Z,73.10
2023-04-11T00:57:26.029Z,73.50
2023-04-11T00:59:52.997Z,73.70
2023-04-11T01:02:19.852Z,74.10
2023-04-11T01:04:47.080Z,74.20
2023-04-11T01:07:14.918Z,74.50
2023-04-11T01:09:42.492Z,74.80
2023-04-11T01:12:10.660Z,74.70
2023-04-11T01:14:39.607Z,74.70
2023-04-11T01:17:08.001Z,74.70
2023-04-11T01:19:34.984Z,74.90
2023-04-11T01:22:02.567Z,75.30
2023-04-11T01:24:29.484Z,75.40
2023-04-11T01:26:57.151Z,75.70
2023-04-11T01:29:23.970Z,76.20
2023-04-11T01:31:51.896Z,76.20
2023-04-11T01:34:19.742Z,76.50
2023-04-11T01:36:46.446Z,76.90
2023-04-11T01:39:13.267Z,78.60
2023-04-11T01:41:41.888Z,80.80
2023-04-11T01:44:08.931Z,81.80
2023-04-11T01:46:35.921Z,83.00
2023-04-11T01:49:03.496Z,83.80
2023-04-11T01:51:30.393Z,84.90
2023-04-11T01:53:57.160Z,85.40
2023-04-11T01:56:23.822Z,85.70
2023-04-11T01:58:50.618Z,86.70
2023-04-11T02:01:18.810Z,86.70
2023-04-11T02:03:46.522Z,88.60
2023-04-11T02:06:14.794Z,89.00
2023-04-11T02:08:41.515Z,89.90
2023-04-11T02:11:08.317Z,90.60
2023-04-11T02:13:35.930Z,91.00
2023-04-11T02:16:11.663Z,91.80
2023-04-11T02:18:38.576Z,92.10
2023-04-11T02:21:06.202Z,93.50
2023-04-11T02:23:33.217Z,94.10
2023-04-11T02:26:01.353Z,94.40
2023-04-11T02:28:28.219Z,95.10
2023-04-11T02:30:55.773Z,95.60
2023-04-11T02:33:22.832Z,96.70
2023-04-11T02:35:49.906Z,97.20
2023-04-11T02:38:16.602Z,97.70
2023-04-11T02:40:43.297Z,98.40
2023-04-11T02:43:10.077Z,98.80
2023-04-11T02:45:36.895Z,99.10
2023-04-11T02:48:04.034Z,99.40
2023-04-11T02:50:30.921Z,99.70
2023-04-11T02:52:57.727Z,99.90
2023-04-11T02:55:24.525Z,99.90
2023-04-11T02:57:51.912Z,99.90
2023-04-11T03:00:22.109Z,99.90
2023-04-11T03:02:49.466Z,99.90
2023-04-11T03:05:16.545Z,99.90
2023-04-11T03:07:44.518Z,99.90
2023-04-11T03:10:11.313Z,99.90
2023-04-11T03:12:38.256Z,99.90
2023-04-11T03:15:05.426Z,99.90
2023-04-11T03:17:32.284Z,99.90
2023-04-11T03:19:59.103Z,99.90
2023-04-11T03:22:25.995Z,99.90
2023-04-11T03:24:52.828Z,99.90
2023-04-11T03:27:19.569Z,99.90
2023-04-11T03:29:46.361Z,99.90
2023-04-11T03:32:13.146Z,99.90
2023-04-11T03:34:39.863Z,99.90
2023-04-11T03:37:06.825Z,99.90
2023-04-11T03:39:33.575Z,99.90
2023-04-11T03:42:01.801Z,99.90
2023-04-11T03:44:28.598Z,99.90
2023-04-11T03:46:55.548Z,99.90
2023-04-11T03:49:22.445Z,99.90
2023-04-11T03:51:49.275Z,99.90
2023-04-11T03:54:16.059Z,99.90
2023-04-11T03:56:42.846Z,99.90
2023-04-11T03:59:09.617Z,99.90
2023-04-11T04:01:38.156Z,99.90
2023-04-11T04:04:05.830Z,99.90
2023-04-11T04:06:32.737Z,99.90
2023-04-11T04:09:03.763Z,99.90
2023-04-11T04:11:30.571Z,99.90
2023-04-11T04:13:57.618Z,99.90
2023-04-11T04:16:24.734Z,99.90
2023-04-11T04:18:51.516Z,99.90
2023-04-11T04:21:18.224Z,99.90
2023-04-11T04:23:50.019Z,99.90
2023-04-11T04:26:17.705Z,99.90
2023-04-11T04:28:47.379Z,99.90
2023-04-11T04:31:19.251Z,99.90
2023-04-11T04:33:46.572Z,99.90
2023-04-11T04:36:13.407Z,99.90
2023-04-11T04:38:42.132Z,99.90
2023-04-11T04:41:15.236Z,99.90
2023-04-11T04:43:42.646Z,99.90
2023-04-11T04:46:09.869Z,99.90
2023-04-11T04:48:36.930Z,99.90
2023-04-11T04:51:05.331Z,99.90
2023-04-11T04:53:34.669Z,99.90
2023-04-11T04:56:02.329Z,99.90
2023-04-11T04:58:29.144Z,99.90
2023-04-11T05:00:56.473Z,99.90
2023-04-11T05:03:23.489Z,99.90
2023-04-11T05:05:50.503Z,99.90
2023-04-11T05:08:21.879Z,99.90
2023-04-11T05:10:48.606Z,99.90
2023-04-11T05:13:15.290Z,99.90
2023-04-11T05:15:48.378Z,99.90
2023-04-11T05:18:15.548Z,99.90
2023-04-11T05:20:42.320Z,99.90
2023-04-11T05:23:09.225Z,99.90
2023-04-11T05:25:36.062Z,99.90
2023-04-11T05:28:02.858Z,99.90
2023-04-11T05:30:29.725Z,99.90
2023-04-11T05:32:56.438Z,99.90
2023-04-11T05:35:23.393Z,99.90
2023-04-11T05:37:50.491Z,99.90
2023-04-11T05:40:17.332Z,99.90
2023-04-11T05:42:44.280Z,99.60
2023-04-11T05:45:11.384Z,99.50
2023-04-11T05:47:38.138Z,99.20
2023-04-11T05:50:05.381Z,99.10
2023-04-11T05:52:32.067Z,99.00
2023-04-11T05:54:58.753Z,99.00
2023-04-11T05:57:25.524Z,98.80
2023-04-11T05:59:53.104Z,98.60
2023-04-11T06:02:19.996Z,98.70
2023-04-11T06:04:46.986Z,98.60
2023-04-11T06:07:14.067Z,98.30
2023-04-11T06:09:42.420Z,98.20
2023-04-11T06:12:09.918Z,98.00
2023-04-11T06:14:38.765Z,98.00
2023-04-11T06:17:06.967Z,98.30
2023-04-11T06:19:33.744Z,98.40
2023-04-11T06:22:00.465Z,98.40
2023-04-11T06:24:40.684Z,98.40
2023-04-11T06:27:11.196Z,98.20
2023-04-11T06:29:38.668Z,98.00
2023-04-11T06:32:06.108Z,98.00
2023-04-11T06:34:33.094Z,98.10
2023-04-11T06:36:59.951Z,98.00
2023-04-11T06:39:27.114Z,98.10
2023-04-11T06:41:53.768Z,98.20
2023-04-11T06:44:20.501Z,98.30
2023-04-11T06:46:47.296Z,98.00
2023-04-11T06:49:14.097Z,98.10
2023-04-11T06:51:40.805Z,97.90
2023-04-11T06:54:07.556Z,97.80
2023-04-11T06:56:34.699Z,97.80
2023-04-11T06:59:01.392Z,97.60
2023-04-11T07:01:35.426Z,97.50
2023-04-11T07:04:02.586Z,97.70
2023-04-11T07:06:30.426Z,97.60
2023-04-11T07:08:57.573Z,98.00
2023-04-11T07:11:24.483Z,98.20
2023-04-11T07:13:51.220Z,97.80
2023-04-11T07:16:18.046Z,97.90
2023-04-11T07:18:44.986Z,98.10
2023-04-11T07:21:13.496Z,98.00
2023-04-11T07:23:41.325Z,98.20
2023-04-11T07:26:11.827Z,98.20
2023-04-11T07:28:40.152Z,97.80
2023-04-11T07:31:12.240Z,97.90
2023-04-11T07:33:39.516Z,98.00
2023-04-11T07:36:07.209Z,98.10
2023-04-11T07:38:34.194Z,98.30
2023-04-11T07:41:02.483Z,98.20
2023-04-11T07:43:29.846Z,97.70
2023-04-11T07:45:58.385Z,97.50
2023-04-11T07:48:26.905Z,97.10
2023-04-11T07:50:54.916Z,97.00
2023-04-11T07:53:22.370Z,97.20
2023-04-11T07:55:49.210Z,97.20
2023-04-11T07:58:16.056Z,96.60
2023-04-11T08:00:43.083Z,96.60
2023-04-11T08:03:11.393Z,96.20
2023-04-11T08:05:38.778Z,96.50
2023-04-11T08:08:06.340Z,96.10
2023-04-11T08:10:33.605Z,96.10
2023-04-11T08:13:00.818Z,95.90
2023-04-11T08:15:27.616Z,95.70
2023-04-11T08:17:57.370Z,96.10
2023-04-11T08:20:24.783Z,95.80
2023-04-11T08:22:51.743Z,95.50
2023-04-11T08:25:25.394Z,95.50
2023-04-11T08:27:52.543Z,95.00
2023-04-11T08:30:20.112Z,95.70
2023-04-11T08:32:46.933Z,94.60
2023-04-11T08:35:13.827Z,94.30
2023-04-11T08:37:41.379Z,94.30
2023-04-11T08:40:09.248Z,93.80
2023-04-11T08:42:36.476Z,93.80
2023-04-11T08:45:08.631Z,93.60
2023-04-11T08:47:37.010Z,93.50
2023-04-11T08:50:05.011Z,93.80
2023-04-11T08:52:33.005Z,93.30
2023-04-11T08:55:00.076Z,93.70
2023-04-11T08:57:34.830Z,93.10
2023-04-11T09:00:18.923Z,92.80
2023-04-11T09:02:58.207Z,92.50
2023-04-11T09:05:26.920Z,92.50
2023-04-11T09:07:54.900Z,93.00
2023-04-11T09:10:22.369Z,93.00
2023-04-11T09:12:49.130Z,91.90
2023-04-11T09:15:29.978Z,91.20
2023-04-11T09:18:00.364Z,90.50
2023-04-11T09:20:30.359Z,89.70
2023-04-11T09:23:01.187Z,90.30
2023-04-11T09:25:28.419Z,88.60
2023-04-11T09:28:09.282Z,88.20
2023-04-11T09:30:36.582Z,89.60
2023-04-11T09:33:28.501Z,90.00
2023-04-11T09:35:56.742Z,90.40
2023-04-11T09:38:36.255Z,90.40
2023-04-11T09:41:04.354Z,90.50
2023-04-11T09:43:57.781Z,88.90
2023-04-11T09:46:25.327Z,89.10
2023-04-11T09:48:54.587Z,88.60
2023-04-11T09:51:35.227Z,89.40
2023-04-11T09:54:09.917Z,90.00
2023-04-11T09:56:37.168Z,88.50
2023-04-11T09:59:05.178Z,86.20
2023-04-11T10:01:32.707Z,85.90
2023-04-11T10:04:01.349Z,86.10
2023-04-11T10:06:34.251Z,83.20
2023-04-11T10:09:13.824Z,83.90
2023-04-11T10:11:44.497Z,84.10
2023-04-11T10:14:38.922Z,84.70
2023-04-11T10:17:23.901Z,83.80
2023-04-11T10:19:57.473Z,83.30
2023-04-11T10:22:46.309Z,82.00
2023-04-11T10:25:21.169Z,83.30
2023-04-11T10:28:01.161Z,84.20
2023-04-11T10:30:40.382Z,85.00
2023-04-11T10:33:15.979Z,84.00
2023-04-11T10:35:58.324Z,84.60
2023-04-11T10:38:37.261Z,85.00
2023-04-11T10:41:42.306Z,86.40
2023-04-11T10:44:20.759Z,87.80
2023-04-11T10:46:53.901Z,88.40
2023-04-11T10:49:39.273Z,88.70
2023-04-11T10:52:24.555Z,88.50
2023-04-11T10:54:53.471Z,88.20
2023-04-11T10:57:21.649Z,85.10
2023-04-11T10:59:51.569Z,85.60
2023-04-11T11:02:22.093Z,84.10
2023-04-11T11:04:49.388Z,82.00
2023-04-11T11:07:17.502Z,80.50
2023-04-11T11:09:51.406Z,79.60
2023-04-11T11:12:18.429Z,79.90
2023-04-11T11:14:46.972Z,79.40
2023-04-11T11:17:15.699Z,79.50
2023-04-11T11:19:46.834Z,76.60
2023-04-11T11:22:18.050Z,76.50
2023-04-11T11:24:44.874Z,76.80
2023-04-11T11:27:22.824Z,76.30
2023-04-11T11:29:50.643Z,76.10
2023-04-11T11:32:24.889Z,75.00
2023-04-11T11:34:53.338Z,75.30
2023-04-11T11:37:21.406Z,74.80
2023-04-11T11:39:49.224Z,75.90
2023-04-11T11:42:16.308Z,73.90
2023-04-11T11:44:43.177Z,74.30
2023-04-11T11:47:17.844Z,73.80
2023-04-11T11:49:48.687Z,73.40
2023-04-11T11:52:34.156Z,74.10
2023-04-11T11:55:06.875Z,71.50
2023-04-11T11:57:35.524Z,71.90
2023-04-11T12:00:09.320Z,71.40
2023-04-11T12:02:36.629Z,71.10
2023-04-11T12:05:06.176Z,70.70
2023-04-11T12:07:36.232Z,70.70
2023-04-11T12:10:08.977Z,70.20
2023-04-11T12:12:40.870Z,70.10
2023-04-11T12:15:11.600Z,71.10
2023-04-11T12:17:39.074Z,71.30
2023-04-11T12:20:08.028Z,71.20
2023-04-11T12:22:35.714Z,70.80
2023-04-11T12:25:08.717Z,71.20
2023-04-11T12:27:37.042Z,71.20
2023-04-11T12:30:04.572Z,71.60
2023-04-11T12:32:33.891Z,71.70
2023-04-11T12:35:01.616Z,71.60
2023-04-11T12:37:28.505Z,71.20
2023-04-11T12:39:55.225Z,70.90
2023-04-11T12:42:26.725Z,71.40
2023-04-11T12:44:53.954Z,70.70
2023-04-11T12:47:20.747Z,70.50
2023-04-11T12:49:47.550Z,70.30
2023-04-11T12:52:14.405Z,71.10
2023-04-11T12:54:41.199Z,71.20
2023-04-11T12:57:08.230Z,71.00
2023-04-11T12:59:35.132Z,70.40
2023-04-11T13:02:02.186Z,70.80
2023-04-11T13:04:29.201Z,70.00
2023-04-11T13:07:00.863Z,70.00
2023-04-11T13:09:29.706Z,70.80
2023-04-11T13:11:56.945Z,69.80
2023-04-11T13:14:23.793Z,69.40
2023-04-11T13:16:50.710Z,69.50
2023-04-11T13:19:17.503Z,69.00
2023-04-11T13:21:44.310Z,69.40
2023-04-11T13:24:11.208Z,68.90
2023-04-11T13:26:39.297Z,68.40
2023-04-11T13:29:06.763Z,67.40
2023-04-11T13:31:33.786Z,65.30
2023-04-11T13:34:01.612Z,65.60
2023-04-11T13:36:28.854Z,64.80
2023-04-11T13:38:57.384Z,64.80
2023-04-11T13:41:25.429Z,65.10
2023-04-11T13:43:52.762Z,63.30
2023-04-11T13:46:19.958Z,63.70
2023-04-11T13:48:46.820Z,63.90
2023-04-11T13:51:13.845Z,63.00
2023-04-11T13:53:40.780Z,63.00
2023-04-11T13:56:08.310Z,62.40
2023-04-11T13:58:35.499Z,61.70
2023-04-11T14:01:02.316Z,61.10
2023-04-11T14:03:33.368Z,61.10
2023-04-11T14:06:01.264Z,61.30
2023-04-11T14:08:29.106Z,61.80
2023-04-11T14:10:59.565Z,61.60
2023-04-11T14:13:26.477Z,60.40
2023-04-11T14:16:05.453Z,61.40
2023-04-11T14:18:34.636Z,61.10
2023-04-11T14:21:01.859Z,60.60
2023-04-11T14:23:29.392Z,59.70
2023-04-11T14:25:56.682Z,58.50
2023-04-11T14:28:26.502Z,58.20
2023-04-11T14:30:53.944Z,58.20
2023-04-11T14:33:21.237Z,58.20
2023-04-11T14:35:48.264Z,58.00
2023-04-11T14:38:15.951Z,58.30
2023-04-11T14:40:43.113Z,57.90
2023-04-11T14:43:09.996Z,57.20
2023-04-11T14:45:37.043Z,57.50
2023-04-11T14:48:05.492Z,57.50
2023-04-11T14:50:32.371Z,57.90
2023-04-11T14:52:59.211Z,57.60
2023-04-11T14:55:25.995Z,57.60
2023-04-11T14:57:55.540Z,57.70
2023-04-11T15:00:24.736Z,57.10
2023-04-11T15:02:56.187Z,57.80
2023-04-11T15:05:24.215Z,58.20
2023-04-11T15:07:52.714Z,56.60
2023-04-11T15:10:22.789Z,57.00
2023-04-11T15:12:49.897Z,56.50
2023-04-11T15:15:16.864Z,56.20
2023-04-11T15:17:46.819Z,55.80
2023-04-11T15:20:14.648Z,56.50
2023-04-11T15:22:43.844Z,56.30
2023-04-11T15:25:15.488Z,56.50
2023-04-11T15:27:42.575Z,56.60
2023-04-11T15:30:10.481Z,56.90
2023-04-11T15:32:43.810Z,57.10
2023-04-11T15:35:10.921Z,57.60
2023-04-11T15:37:37.682Z,57.70
2023-04-11T15:40:09.353Z,57.70
2023-04-11T15:42:37.584Z,57.90
2023-04-11T15:45:05.003Z,58.30
2023-04-11T15:47:31.929Z,58.00
2023-04-11T15:50:01.863Z,58.00
2023-04-11T15:52:28.549Z,58.20
2023-04-11T15:54:55.377Z,58.50
2023-04-11T15:57:22.145Z,58.90
2023-04-11T15:59:48.867Z,58.80
2023-04-11T16:02:15.920Z,58.00
2023-04-11T16:04:45.302Z,58.10
2023-04-11T16:07:14.076Z,58.50
2023-04-11T16:09:40.836Z,58.80
2023-04-11T16:12:07.875Z,58.40
2023-04-11T16:14:34.783Z,57.70
2023-04-11T16:17:01.617Z,57.80
2023-04-11T16:19:28.423Z,58.00
2023-04-11T16:21:55.208Z,58.00
2023-04-11T16:24:21.960Z,58.10
2023-04-11T16:26:48.648Z,58.60
2023-04-11T16:29:15.356Z,58.90
2023-04-11T16:31:42.182Z,58.50
2023-04-11T16:34:09.049Z,59.20
2023-04-11T16:36:35.780Z,58.40
2023-04-11T16:39:04.263Z,58.00
2023-04-11T16:41:31.540Z,58.40
2023-04-11T16:43:58.753Z,58.60
2023-04-11T16:46:25.810Z,59.10
2023-04-11T16:48:52.672Z,59.20
2023-04-11T16:51:21.334Z,59.30
2023-04-11T16:53:49.593Z,59.30
2023-04-11T16:56:19.847Z,59.70
2023-04-11T16:58:49.335Z,60.00
2023-04-11T17:01:16.201Z,60.60
2023-04-11T17:03:44.003Z,60.60
2023-04-11T17:06:15.518Z,60.70
2023-04-11T17:08:42.974Z,61.10
2023-04-11T17:11:11.481Z,61.30
2023-04-11T17:13:39.364Z,61.30
2023-04-11T17:16:08.156Z,61.20
2023-04-11T17:18:35.225Z,61.10
2023-04-11T17:21:02.100Z,60.90
2023-04-11T17:23:41.188Z,61.00
2023-04-11T17:26:09.067Z,61.20
2023-04-11T17:28:36.351Z,60.90
2023-04-11T17:31:12.827Z,61.20
2023-04-11T17:33:39.940Z,61.60
2023-04-11T17:36:07.318Z,62.80
2023-04-11T17:38:34.289Z,62.30
2023-04-11T17:41:13.690Z,62.70
2023-04-11T17:44:09.900Z,63.20
2023-04-11T17:46:38.718Z,63.80
2023-04-11T17:49:08.663Z,63.80
2023-04-11T17:51:43.000Z,63.70
2023-04-11T17:54:18.554Z,63.90
2023-04-11T17:56:45.334Z,64.30
2023-04-11T17:59:18.390Z,64.50
2023-04-11T18:01:47.009Z,64.00
2023-04-11T18:04:15.329Z,64.80
2023-04-11T18:06:42.801Z,65.00
2023-04-11T18:09:11.997Z,65.50
2023-04-11T18:11:43.229Z,65.70
2023-04-11T18:14:20.394Z,66.10
2023-04-11T18:16:47.286Z,67.30
2023-04-11T18:19:14.729Z,65.60
2023-04-11T18:21:41.632Z,66.10
2023-04-11T18:24:09.126Z,66.50
2023-04-11T18:26:36.094Z,66.60
2023-04-11T18:29:04.089Z,67.10
2023-04-11T18:31:35.149Z,66.80
2023-04-11T18:36:29.522Z,67.50
2023-04-11T18:38:56.991Z,67.80
2023-04-11T18:41:26.187Z,68.30
2023-04-11T18:43:53.528Z,69.10
2023-04-11T18:46:20.701Z,70.50
2023-04-11T18:48:47.997Z,70.30
2023-04-11T18:51:15.247Z,71.70
2023-04-11T18:53:42.490Z,71.50
2023-04-11T18:56:09.900Z,71.30
2023-04-11T18:58:50.268Z,71.60
2023-04-11T19:01:21.199Z,72.10
2023-04-11T19:03:50.356Z,72.30
2023-04-11T19:06:18.230Z,72.50
2023-04-11T19:09:03.487Z,72.70
2023-04-11T19:11:32.683Z,72.80
2023-04-11T19:14:11.576Z,72.90
2023-04-11T19:16:44.659Z,73.10
2023-04-11T19:19:14.178Z,73.60
2023-04-11T19:21:42.601Z,74.60
2023-04-11T19:24:13.719Z,74.70
2023-04-11T19:26:42.909Z,74.50
2023-04-11T19:29:12.079Z,75.30
2023-04-11T19:31:41.674Z,75.70
2023-04-11T19:34:09.659Z,76.10
2023-04-11T19:36:38.990Z,76.00
2023-04-11T19:39:11.287Z,75.50
2023-04-11T19:41:39.304Z,75.50
2023-04-11T19:44:07.189Z,75.90
2023-04-11T19:46:34.914Z,76.70
2023-04-11T19:49:03.170Z,76.80
2023-04-11T19:51:32.342Z,76.30
2023-04-11T19:54:00.405Z,76.10
2023-04-11T19:56:28.408Z,77.00
2023-04-11T19:58:56.259Z,77.70
2023-04-11T20:01:24.317Z,78.00
2023-04-11T20:03:54.297Z,77.90
2023-04-11T20:06:23.221Z,78.10
2023-04-11T20:08:52.301Z,78.80
2023-04-11T20:11:22.006Z,78.90
2023-04-11T20:13:49.708Z,79.00
2023-04-11T20:16:21.805Z,78.60
2023-04-11T20:18:50.312Z,79.00
2023-04-11T20:21:18.185Z,78.80
2023-04-11T20:23:46.088Z,78.20
2023-04-11T20:26:14.211Z,77.80
2023-04-11T20:28:43.505Z,79.30
2023-04-11T20:31:11.994Z,79.30
2023-04-11T20:33:40.289Z,78.00
2023-04-11T20:36:09.536Z,77.70
2023-04-11T20:38:37.251Z,78.30
2023-04-11T20:41:06.058Z,78.40
2023-04-11T20:43:42.086Z,78.40
2023-04-11T20:46:13.884Z,78.50
2023-04-11T20:48:43.773Z,79.90
2023-04-11T20:51:11.516Z,80.00
2023-04-11T20:53:38.539Z,79.50
2023-04-11T20:56:05.670Z,79.00
2023-04-11T20:58:32.550Z,78.90
2023-04-11T21:00:59.558Z,78.80
2023-04-11T21:03:30.196Z,78.70
2023-04-11T21:05:57.128Z,78.90
2023-04-11T21:08:24.082Z,79.20
2023-04-11T21:10:51.032Z,80.00
2023-04-11T21:13:17.854Z,79.90
2023-04-11T21:15:45.993Z,80.00
2023-04-11T21:18:12.719Z,80.20
2023-04-11T21:20:40.500Z,79.40
2023-04-11T21:23:07.317Z,79.10
2023-04-11T21:25:36.292Z,79.20
2023-04-11T21:28:03.050Z,81.40
2023-04-11T21:30:30.697Z,81.00
2023-04-11T21:32:57.530Z,81.20
2023-04-11T21:35:24.447Z,80.50
2023-04-11T21:37:51.373Z,80.80
2023-04-11T21:40:18.163Z,80.40
2023-04-11T21:42:44.945Z,80.00
2023-04-11T21:45:11.797Z,80.00
2023-04-11T21:47:38.611Z,80.10
2023-04-11T21:50:06.020Z,80.20
2023-04-11T21:52:32.809Z,79.90
2023-04-11T21:54:59.557Z,81.10
2023-04-11T21:57:27.079Z,81.50
2023-04-11T21:59:53.981Z,81.50
2023-04-11T22:02:20.931Z,81.30
2023-04-11T22:05:04.977Z,80.70
2023-04-11T22:07:56.964Z,80.10
2023-04-11T22:10:28.711Z,79.50
2023-04-11T22:13:01.733Z,79.70
2023-04-11T22:15:33.103Z,79.60
2023-04-11T22:18:02.230Z,79.40
2023-04-11T22:20:29.092Z,79.20
2023-04-11T22:22:57.693Z,79.20
2023-04-11T22:25:24.509Z,79.00
2023-04-11T22:27:54.507Z,78.70
2023-04-11T22:30:23.233Z,79.10
2023-04-11T22:32:51.115Z,78.90
2023-04-11T22:35:18.629Z,79.30
2023-04-11T22:37:45.734Z,78.80
2023-04-11T22:40:13.666Z,78.70
2023-04-11T22:42:40.685Z,78.70
2023-04-11T22:45:08.331Z,78.60
2023-04-11T22:47:38.091Z,78.70
2023-04-11T22:50:06.084Z,80.30
2023-04-11T22:52:32.802Z,81.00
2023-04-11T22:54:59.636Z,81.00
2023-04-11T22:57:26.475Z,80.70
2023-04-11T22:59:53.238Z,80.20
2023-04-11T23:02:20.064Z,79.90
2023-04-11T23:04:46.857Z,79.60
2023-04-11T23:07:13.943Z,79.40
2023-04-11T23:09:40.621Z,79.60
2023-04-11T23:12:07.838Z,79.70
2023-04-11T23:14:34.657Z,79.90
2023-04-11T23:17:01.446Z,81.30
2023-04-11T23:19:30.035Z,82.30
2023-04-11T23:21:56.840Z,82.50
2023-04-11T23:24:24.040Z,81.60
2023-04-11T23:26:50.844Z,81.70
2023-04-11T23:29:18.414Z,81.00
2023-04-11T23:31:45.118Z,80.60
2023-04-11T23:34:13.041Z,80.60
2023-04-11T23:36:39.796Z,80.50
2023-04-11T23:39:07.110Z,80.60
2023-04-11T23:41:33.941Z,80.80
2023-04-11T23:44:00.826Z,80.90
2023-04-11T23:46:27.879Z,81.00
2023-04-11T23:48:54.926Z,81.20
2023-04-11T23:51:21.636Z,81.20
2023-04-11T23:53:48.511Z,81.50
2023-04-11T23:56:15.262Z,81.50
2023-04-11T23:58:42.036Z,81.60
